sensor_id;sensor_type;location;lat;lon;timestamp;P1;durP1;ratioP1;P2;durP2;ratioP2
27939;SDS011;15275;51.716;14.324;2023-03-20T00:03:52;5.63;;;2.70;;
27939;SDS011;15275;51.716;14.324;2023-03-20T00:06:20;4.65;;;2.63;;
27939;SDS011;15275;51.716;14.324;2023-03-20T00:08:52;3.72;;;2.35;;
27939;SDS011;15275;51.716;14.324;2023-03-20T00:11:26;4.03;;;2.20;;
27939;SDS011;15275;51.716;14.324;2023-03-20T00:14:01;6.95;;;3.00;;
27939;SDS011;15275;51.716;14.324;2023-03-20T00:16:34;3.22;;;2.10;;
27939;SDS011;15275;51.716;14.324;2023-03-20T00:19:15;4.18;;;2.53;;
27939;SDS011;15275;51.716;14.324;2023-03-20T00:21:47;3.20;;;2.33;;
27939;SDS011;15275;51.716;14.324;2023-03-20T00:24:14;3.47;;;2.67;;
27939;SDS011;15275;51.716;14.324;2023-03-20T00:26:41;3.50;;;2.85;;
27939;SDS011;15275;51.716;14.324;2023-03-20T00:29:13;2.88;;;2.50;;
27939;SDS011;15275;51.716;14.324;2023-03-20T00:31:48;3.83;;;2.70;;
27939;SDS011;15275;51.716;14.324;2023-03-20T00:34:16;3.92;;;2.70;;
27939;SDS011;15275;51.716;14.324;2023-03-20T00:36:46;6.10;;;2.85;;
27939;SDS011;15275;51.716;14.324;2023-03-20T00:39:12;4.07;;;2.33;;
27939;SDS011;15275;51.716;14.324;2023-03-20T00:46:50;6.25;;;2.95;;
27939;SDS011;15275;51.716;14.324;2023-03-20T00:49:30;5.15;;;2.92;;
27939;SDS011;15275;51.716;14.324;2023-03-20T00:51:58;3.85;;;2.53;;
27939;SDS011;15275;51.716;14.324;2023-03-20T00:54:26;7.43;;;2.58;;
27939;SDS011;15275;51.716;14.324;2023-03-20T01:00:02;4.50;;;2.30;;
27939;SDS011;15275;51.716;14.324;2023-03-20T01:03:01;3.75;;;2.30;;
27939;SDS011;15275;51.716;14.324;2023-03-20T01:05:46;4.05;;;2.65;;
27939;SDS011;15275;51.716;14.324;2023-03-20T01:08:14;3.33;;;2.35;;
27939;SDS011;15275;51.716;14.324;2023-03-20T01:10:54;4.78;;;2.55;;
27939;SDS011;15275;51.716;14.324;2023-03-20T01:15:52;3.90;;;2.08;;
27939;SDS011;15275;51.716;14.324;2023-03-20T01:18:22;2.38;;;1.85;;
27939;SDS011;15275;51.716;14.324;2023-03-20T01:20:51;4.55;;;2.88;;
27939;SDS011;15275;51.716;14.324;2023-03-20T01:23:17;5.70;;;2.50;;
27939;SDS011;15275;51.716;14.324;2023-03-20T01:25:46;3.85;;;2.60;;
27939;SDS011;15275;51.716;14.324;2023-03-20T01:28:17;3.55;;;2.47;;
27939;SDS011;15275;51.716;14.324;2023-03-20T01:30:47;3.13;;;2.83;;
27939;SDS011;15275;51.716;14.324;2023-03-20T01:33:15;4.95;;;2.75;;
27939;SDS011;15275;51.716;14.324;2023-03-20T01:35:47;4.03;;;2.95;;
27939;SDS011;15275;51.716;14.324;2023-03-20T01:43:19;5.38;;;2.88;;
27939;SDS011;15275;51.716;14.324;2023-03-20T01:51:16;3.05;;;2.67;;
27939;SDS011;15275;51.716;14.324;2023-03-20T01:53:58;5.43;;;2.70;;
27939;SDS011;15275;51.716;14.324;2023-03-20T01:56:50;3.75;;;2.80;;
27939;SDS011;15275;51.716;14.324;2023-03-20T02:01:55;4.72;;;3.13;;
27939;SDS011;15275;51.716;14.324;2023-03-20T02:04:23;5.47;;;2.95;;
27939;SDS011;15275;51.716;14.324;2023-03-20T02:06:55;5.35;;;3.33;;
27939;SDS011;15275;51.716;14.324;2023-03-20T02:09:21;4.47;;;3.10;;
27939;SDS011;15275;51.716;14.324;2023-03-20T02:11:47;4.38;;;3.03;;
27939;SDS011;15275;51.716;14.324;2023-03-20T02:14:14;5.30;;;3.40;;
27939;SDS011;15275;51.716;14.324;2023-03-20T02:16:40;5.95;;;4.05;;
27939;SDS011;15275;51.716;14.324;2023-03-20T02:19:06;4.25;;;3.55;;
27939;SDS011;15275;51.716;14.324;2023-03-20T02:42:47;5.32;;;3.40;;
27939;SDS011;15275;51.716;14.324;2023-03-20T02:57:46;5.53;;;4.25;;
27939;SDS011;15275;51.716;14.324;2023-03-20T03:03:32;6.40;;;3.97;;
27939;SDS011;15275;51.716;14.324;2023-03-20T03:06:17;5.65;;;3.63;;
27939;SDS011;15275;51.716;14.324;2023-03-20T03:08:51;4.82;;;3.47;;
27939;SDS011;15275;51.716;14.324;2023-03-20T03:11:26;4.65;;;3.47;;
27939;SDS011;15275;51.716;14.324;2023-03-20T03:13:53;8.98;;;3.55;;
27939;SDS011;15275;51.716;14.324;2023-03-20T03:16:28;5.78;;;3.67;;
27939;SDS011;15275;51.716;14.324;2023-03-20T03:21:38;4.80;;;3.28;;
27939;SDS011;15275;51.716;14.324;2023-03-20T03:24:05;6.95;;;3.33;;
27939;SDS011;15275;51.716;14.324;2023-03-20T03:26:53;4.95;;;3.88;;
27939;SDS011;15275;51.716;14.324;2023-03-20T03:29:23;5.10;;;3.67;;
27939;SDS011;15275;51.716;14.324;2023-03-20T03:31:55;6.75;;;4.40;;
27939;SDS011;15275;51.716;14.324;2023-03-20T03:34:21;5.72;;;3.47;;
27939;SDS011;15275;51.716;14.324;2023-03-20T03:37:02;8.68;;;3.75;;
27939;SDS011;15275;51.716;14.324;2023-03-20T03:42:22;5.47;;;3.70;;
27939;SDS011;15275;51.716;14.324;2023-03-20T03:48:07;6.35;;;4.20;;
27939;SDS011;15275;51.716;14.324;2023-03-20T03:50:41;5.10;;;3.63;;
27939;SDS011;15275;51.716;14.324;2023-03-20T03:53:24;4.78;;;3.72;;
27939;SDS011;15275;51.716;14.324;2023-03-20T03:55:58;4.40;;;3.42;;
27939;SDS011;15275;51.716;14.324;2023-03-20T04:01:04;6.82;;;3.95;;
27939;SDS011;15275;51.716;14.324;2023-03-20T04:03:36;7.38;;;4.00;;
27939;SDS011;15275;51.716;14.324;2023-03-20T04:06:07;9.25;;;5.28;;
27939;SDS011;15275;51.716;14.324;2023-03-20T04:08:39;9.15;;;4.10;;
27939;SDS011;15275;51.716;14.324;2023-03-20T04:11:06;8.40;;;4.75;;
27939;SDS011;15275;51.716;14.324;2023-03-20T04:13:42;5.47;;;4.00;;
27939;SDS011;15275;51.716;14.324;2023-03-20T04:16:13;7.68;;;3.95;;
27939;SDS011;15275;51.716;14.324;2023-03-20T04:18:41;7.00;;;4.28;;
27939;SDS011;15275;51.716;14.324;2023-03-20T04:21:07;6.07;;;4.30;;
27939;SDS011;15275;51.716;14.324;2023-03-20T04:23:34;7.13;;;4.15;;
27939;SDS011;15275;51.716;14.324;2023-03-20T04:26:00;6.32;;;3.90;;
27939;SDS011;15275;51.716;14.324;2023-03-20T04:28:27;6.85;;;4.43;;
27939;SDS011;15275;51.716;14.324;2023-03-20T04:30:53;4.85;;;3.45;;
27939;SDS011;15275;51.716;14.324;2023-03-20T04:33:21;6.00;;;4.20;;
27939;SDS011;15275;51.716;14.324;2023-03-20T04:35:49;5.85;;;3.78;;
27939;SDS011;15275;51.716;14.324;2023-03-20T04:38:15;6.07;;;4.30;;
27939;SDS011;15275;51.716;14.324;2023-03-20T04:40:42;6.75;;;4.07;;
27939;SDS011;15275;51.716;14.324;2023-03-20T04:43:09;7.28;;;4.15;;
27939;SDS011;15275;51.716;14.324;2023-03-20T04:45:35;4.95;;;3.88;;
27939;SDS011;15275;51.716;14.324;2023-03-20T04:48:02;6.90;;;5.00;;
27939;SDS011;15275;51.716;14.324;2023-03-20T04:50:29;5.82;;;4.68;;
27939;SDS011;15275;51.716;14.324;2023-03-20T04:52:54;5.65;;;4.70;;
27939;SDS011;15275;51.716;14.324;2023-03-20T04:55:20;5.95;;;4.38;;
27939;SDS011;15275;51.716;14.324;2023-03-20T04:57:46;6.32;;;4.43;;
27939;SDS011;15275;51.716;14.324;2023-03-20T05:00:13;7.80;;;4.38;;
27939;SDS011;15275;51.716;14.324;2023-03-20T05:02:39;5.95;;;4.18;;
27939;SDS011;15275;51.716;14.324;2023-03-20T05:05:06;5.80;;;4.03;;
27939;SDS011;15275;51.716;14.324;2023-03-20T05:07:33;6.57;;;4.05;;
27939;SDS011;15275;51.716;14.324;2023-03-20T05:09:58;7.75;;;4.80;;
27939;SDS011;15275;51.716;14.324;2023-03-20T05:12:24;6.65;;;4.75;;
27939;SDS011;15275;51.716;14.324;2023-03-20T05:14:51;5.60;;;4.47;;
27939;SDS011;15275;51.716;14.324;2023-03-20T05:17:21;6.47;;;3.75;;
27939;SDS011;15275;51.716;14.324;2023-03-20T05:19:48;5.10;;;4.22;;
27939;SDS011;15275;51.716;14.324;2023-03-20T05:22:15;7.65;;;4.50;;
27939;SDS011;15275;51.716;14.324;2023-03-20T05:24:42;6.38;;;4.72;;
27939;SDS011;15275;51.716;14.324;2023-03-20T05:27:08;5.30;;;3.70;;
27939;SDS011;15275;51.716;14.324;2023-03-20T05:29:34;8.55;;;4.45;;
27939;SDS011;15275;51.716;14.324;2023-03-20T05:32:00;5.85;;;4.30;;
27939;SDS011;15275;51.716;14.324;2023-03-20T05:34:26;9.90;;;4.30;;
27939;SDS011;15275;51.716;14.324;2023-03-20T05:36:52;7.53;;;4.25;;
27939;SDS011;15275;51.716;14.324;2023-03-20T05:39:18;7.80;;;3.78;;
27939;SDS011;15275;51.716;14.324;2023-03-20T05:41:44;5.78;;;3.72;;
27939;SDS011;15275;51.716;14.324;2023-03-20T05:44:10;6.47;;;4.15;;
27939;SDS011;15275;51.716;14.324;2023-03-20T05:46:36;6.20;;;3.88;;
27939;SDS011;15275;51.716;14.324;2023-03-20T05:49:02;5.07;;;3.78;;
27939;SDS011;15275;51.716;14.324;2023-03-20T05:51:28;6.45;;;3.85;;
27939;SDS011;15275;51.716;14.324;2023-03-20T05:53:53;7.65;;;4.20;;
27939;SDS011;15275;51.716;14.324;2023-03-20T05:56:19;6.00;;;4.07;;
27939;SDS011;15275;51.716;14.324;2023-03-20T05:58:45;5.22;;;3.50;;
27939;SDS011;15275;51.716;14.324;2023-03-20T06:01:11;5.47;;;3.33;;
27939;SDS011;15275;51.716;14.324;2023-03-20T06:03:40;5.28;;;3.17;;
27939;SDS011;15275;51.716;14.324;2023-03-20T06:06:06;6.35;;;3.70;;
27939;SDS011;15275;51.716;14.324;2023-03-20T06:08:32;5.63;;;3.58;;
27939;SDS011;15275;51.716;14.324;2023-03-20T06:11:00;5.70;;;3.72;;
27939;SDS011;15275;51.716;14.324;2023-03-20T06:13:27;4.00;;;3.40;;
27939;SDS011;15275;51.716;14.324;2023-03-20T06:15:53;4.97;;;3.60;;
27939;SDS011;15275;51.716;14.324;2023-03-20T06:18:19;5.70;;;4.00;;
27939;SDS011;15275;51.716;14.324;2023-03-20T06:20:45;5.13;;;3.63;;
27939;SDS011;15275;51.716;14.324;2023-03-20T06:23:11;5.10;;;3.33;;
27939;SDS011;15275;51.716;14.324;2023-03-20T06:25:37;5.93;;;3.83;;
27939;SDS011;15275;51.716;14.324;2023-03-20T06:28:03;5.28;;;3.60;;
27939;SDS011;15275;51.716;14.324;2023-03-20T06:30:29;4.03;;;3.60;;
27939;SDS011;15275;51.716;14.324;2023-03-20T06:32:55;4.88;;;3.78;;
27939;SDS011;15275;51.716;14.324;2023-03-20T06:35:21;5.68;;;3.55;;
27939;SDS011;15275;51.716;14.324;2023-03-20T06:37:47;5.80;;;3.88;;
27939;SDS011;15275;51.716;14.324;2023-03-20T06:40:13;4.72;;;3.40;;
27939;SDS011;15275;51.716;14.324;2023-03-20T06:42:38;4.35;;;3.80;;
27939;SDS011;15275;51.716;14.324;2023-03-20T06:45:04;5.18;;;3.95;;
27939;SDS011;15275;51.716;14.324;2023-03-20T06:47:32;5.00;;;3.55;;
27939;SDS011;15275;51.716;14.324;2023-03-20T06:49:57;4.90;;;3.58;;
27939;SDS011;15275;51.716;14.324;2023-03-20T06:52:23;5.30;;;3.80;;
27939;SDS011;15275;51.716;14.324;2023-03-20T06:54:49;5.07;;;3.90;;
27939;SDS011;15275;51.716;14.324;2023-03-20T06:57:16;6.22;;;3.92;;
27939;SDS011;15275;51.716;14.324;2023-03-20T06:59:42;5.07;;;4.18;;
27939;SDS011;15275;51.716;14.324;2023-03-20T07:02:09;4.70;;;3.85;;
27939;SDS011;15275;51.716;14.324;2023-03-20T07:04:35;5.25;;;3.60;;
27939;SDS011;15275;51.716;14.324;2023-03-20T07:07:01;7.90;;;4.10;;
27939;SDS011;15275;51.716;14.324;2023-03-20T07:09:27;3.90;;;3.17;;
27939;SDS011;15275;51.716;14.324;2023-03-20T07:11:53;5.57;;;3.85;;
27939;SDS011;15275;51.716;14.324;2023-03-20T07:14:19;5.45;;;3.50;;
27939;SDS011;15275;51.716;14.324;2023-03-20T07:16:45;4.85;;;3.80;;
27939;SDS011;15275;51.716;14.324;2023-03-20T07:19:11;8.07;;;4.28;;
27939;SDS011;15275;51.716;14.324;2023-03-20T07:21:38;5.03;;;4.25;;
27939;SDS011;15275;51.716;14.324;2023-03-20T07:24:05;6.60;;;3.58;;
27939;SDS011;15275;51.716;14.324;2023-03-20T07:26:31;6.85;;;3.85;;
27939;SDS011;15275;51.716;14.324;2023-03-20T07:28:57;4.80;;;3.58;;
27939;SDS011;15275;51.716;14.324;2023-03-20T07:31:24;5.80;;;4.13;;
27939;SDS011;15275;51.716;14.324;2023-03-20T07:33:52;4.68;;;4.03;;
27939;SDS011;15275;51.716;14.324;2023-03-20T07:36:19;4.95;;;3.30;;
27939;SDS011;15275;51.716;14.324;2023-03-20T07:38:45;5.35;;;3.95;;
27939;SDS011;15275;51.716;14.324;2023-03-20T07:41:11;7.07;;;4.18;;
27939;SDS011;15275;51.716;14.324;2023-03-20T07:43:37;8.57;;;4.45;;
27939;SDS011;15275;51.716;14.324;2023-03-20T07:46:04;6.35;;;4.90;;
27939;SDS011;15275;51.716;14.324;2023-03-20T07:48:32;6.68;;;4.38;;
27939;SDS011;15275;51.716;14.324;2023-03-20T07:50:59;6.18;;;4.40;;
27939;SDS011;15275;51.716;14.324;2023-03-20T07:53:26;5.55;;;4.35;;
27939;SDS011;15275;51.716;14.324;2023-03-20T07:55:52;6.50;;;4.35;;
27939;SDS011;15275;51.716;14.324;2023-03-20T07:58:18;6.82;;;5.25;;
27939;SDS011;15275;51.716;14.324;2023-03-20T08:00:44;7.55;;;4.95;;
27939;SDS011;15275;51.716;14.324;2023-03-20T08:03:10;7.25;;;4.50;;
27939;SDS011;15275;51.716;14.324;2023-03-20T08:05:36;6.53;;;5.03;;
27939;SDS011;15275;51.716;14.324;2023-03-20T08:08:02;7.97;;;5.18;;
27939;SDS011;15275;51.716;14.324;2023-03-20T08:10:28;6.40;;;4.93;;
27939;SDS011;15275;51.716;14.324;2023-03-20T08:12:54;7.65;;;5.18;;
27939;SDS011;15275;51.716;14.324;2023-03-20T08:15:20;9.63;;;5.22;;
27939;SDS011;15275;51.716;14.324;2023-03-20T08:17:46;7.55;;;4.97;;
27939;SDS011;15275;51.716;14.324;2023-03-20T08:20:12;7.78;;;5.30;;
27939;SDS011;15275;51.716;14.324;2023-03-20T08:22:40;8.63;;;4.63;;
27939;SDS011;15275;51.716;14.324;2023-03-20T08:25:08;6.45;;;4.90;;
27939;SDS011;15275;51.716;14.324;2023-03-20T08:27:34;9.13;;;5.22;;
27939;SDS011;15275;51.716;14.324;2023-03-20T08:30:01;7.32;;;4.88;;
27939;SDS011;15275;51.716;14.324;2023-03-20T08:32:27;6.13;;;4.90;;
27939;SDS011;15275;51.716;14.324;2023-03-20T08:34:53;6.60;;;4.50;;
27939;SDS011;15275;51.716;14.324;2023-03-20T08:37:20;10.02;;;5.80;;
27939;SDS011;15275;51.716;14.324;2023-03-20T08:39:46;7.03;;;4.95;;
27939;SDS011;15275;51.716;14.324;2023-03-20T08:42:12;7.07;;;5.03;;
27939;SDS011;15275;51.716;14.324;2023-03-20T08:44:38;8.32;;;5.80;;
27939;SDS011;15275;51.716;14.324;2023-03-20T08:47:04;9.15;;;5.35;;
27939;SDS011;15275;51.716;14.324;2023-03-20T08:49:32;7.93;;;5.35;;
27939;SDS011;15275;51.716;14.324;2023-03-20T08:51:58;9.50;;;6.10;;
27939;SDS011;15275;51.716;14.324;2023-03-20T08:54:25;7.32;;;5.50;;
27939;SDS011;15275;51.716;14.324;2023-03-20T08:56:51;7.90;;;4.88;;
27939;SDS011;15275;51.716;14.324;2023-03-20T08:59:17;7.75;;;5.60;;
27939;SDS011;15275;51.716;14.324;2023-03-20T09:01:43;6.07;;;4.88;;
27939;SDS011;15275;51.716;14.324;2023-03-20T09:04:10;8.27;;;5.80;;
27939;SDS011;15275;51.716;14.324;2023-03-20T09:06:38;10.57;;;6.68;;
27939;SDS011;15275;51.716;14.324;2023-03-20T09:09:05;8.10;;;5.82;;
27939;SDS011;15275;51.716;14.324;2023-03-20T09:11:31;9.30;;;5.88;;
27939;SDS011;15275;51.716;14.324;2023-03-20T09:13:58;8.38;;;5.82;;
27939;SDS011;15275;51.716;14.324;2023-03-20T09:16:24;8.25;;;6.55;;
27939;SDS011;15275;51.716;14.324;2023-03-20T09:18:51;8.90;;;6.28;;
27939;SDS011;15275;51.716;14.324;2023-03-20T09:21:17;9.32;;;6.50;;
27939;SDS011;15275;51.716;14.324;2023-03-20T09:23:43;10.02;;;6.47;;
27939;SDS011;15275;51.716;14.324;2023-03-20T09:26:09;11.20;;;6.95;;
27939;SDS011;15275;51.716;14.324;2023-03-20T09:28:35;11.50;;;7.03;;
27939;SDS011;15275;51.716;14.324;2023-03-20T09:31:01;9.93;;;6.40;;
27939;SDS011;15275;51.716;14.324;2023-03-20T09:33:27;11.32;;;7.30;;
27939;SDS011;15275;51.716;14.324;2023-03-20T09:35:53;12.43;;;7.97;;
27939;SDS011;15275;51.716;14.324;2023-03-20T09:38:19;10.38;;;7.47;;
27939;SDS011;15275;51.716;14.324;2023-03-20T09:40:52;12.13;;;8.10;;
27939;SDS011;15275;51.716;14.324;2023-03-20T09:52:02;11.85;;;7.88;;
27939;SDS011;15275;51.716;14.324;2023-03-20T09:54:50;12.43;;;8.10;;
27939;SDS011;15275;51.716;14.324;2023-03-20T09:57:55;14.98;;;8.32;;
27939;SDS011;15275;51.716;14.324;2023-03-20T10:00:17;12.00;;;7.93;;
27939;SDS011;15275;51.716;14.324;2023-03-20T10:05:29;10.00;;;6.45;;
27939;SDS011;15275;51.716;14.324;2023-03-20T10:08:12;10.32;;;7.13;;
27939;SDS011;15275;51.716;14.324;2023-03-20T10:16:06;12.77;;;7.28;;
27939;SDS011;15275;51.716;14.324;2023-03-20T10:19:01;10.80;;;6.78;;
27939;SDS011;15275;51.716;14.324;2023-03-20T10:21:38;10.23;;;6.38;;
27939;SDS011;15275;51.716;14.324;2023-03-20T10:24:32;11.93;;;7.22;;
27939;SDS011;15275;51.716;14.324;2023-03-20T10:27:28;9.55;;;6.38;;
27939;SDS011;15275;51.716;14.324;2023-03-20T10:34:01;11.73;;;6.97;;
27939;SDS011;15275;51.716;14.324;2023-03-20T10:41:59;12.60;;;8.13;;
27939;SDS011;15275;51.716;14.324;2023-03-20T10:44:38;12.68;;;9.00;;
27939;SDS011;15275;51.716;14.324;2023-03-20T10:47:10;14.38;;;8.75;;
27939;SDS011;15275;51.716;14.324;2023-03-20T10:49:42;11.73;;;8.50;;
27939;SDS011;15275;51.716;14.324;2023-03-20T10:52:39;15.43;;;8.45;;
27939;SDS011;15275;51.716;14.324;2023-03-20T10:55:17;13.63;;;8.95;;
27939;SDS011;15275;51.716;14.324;2023-03-20T10:57:53;13.02;;;9.07;;
27939;SDS011;15275;51.716;14.324;2023-03-20T11:00:27;12.23;;;8.68;;
27939;SDS011;15275;51.716;14.324;2023-03-20T11:02:53;14.88;;;9.50;;
27939;SDS011;15275;51.716;14.324;2023-03-20T11:08:00;14.93;;;9.40;;
27939;SDS011;15275;51.716;14.324;2023-03-20T11:10:33;13.00;;;8.52;;
27939;SDS011;15275;51.716;14.324;2023-03-20T11:16:28;14.02;;;8.27;;
27939;SDS011;15275;51.716;14.324;2023-03-20T11:18:55;11.90;;;8.05;;
27939;SDS011;15275;51.716;14.324;2023-03-20T11:21:34;14.10;;;8.13;;
27939;SDS011;15275;51.716;14.324;2023-03-20T11:24:41;18.60;;;10.48;;
27939;SDS011;15275;51.716;14.324;2023-03-20T11:27:19;21.15;;;12.80;;
27939;SDS011;15275;51.716;14.324;2023-03-20T11:29:51;19.08;;;12.48;;
27939;SDS011;15275;51.716;14.324;2023-03-20T11:35:10;22.67;;;12.57;;
27939;SDS011;15275;51.716;14.324;2023-03-20T11:37:51;18.58;;;12.57;;
27939;SDS011;15275;51.716;14.324;2023-03-20T11:40:23;20.85;;;11.50;;
27939;SDS011;15275;51.716;14.324;2023-03-20T11:45:24;18.70;;;12.50;;
27939;SDS011;15275;51.716;14.324;2023-03-20T11:47:52;21.83;;;12.88;;
27939;SDS011;15275;51.716;14.324;2023-03-20T11:50:30;21.50;;;13.75;;
27939;SDS011;15275;51.716;14.324;2023-03-20T11:53:02;27.77;;;15.73;;
27939;SDS011;15275;51.716;14.324;2023-03-20T11:55:58;31.40;;;16.00;;
27939;SDS011;15275;51.716;14.324;2023-03-20T11:58:32;29.10;;;15.55;;
27939;SDS011;15275;51.716;14.324;2023-03-20T12:01:03;31.35;;;17.02;;
27939;SDS011;15275;51.716;14.324;2023-03-20T12:03:40;31.73;;;18.35;;
27939;SDS011;15275;51.716;14.324;2023-03-20T12:06:14;35.33;;;18.77;;
27939;SDS011;15275;51.716;14.324;2023-03-20T12:08:55;36.35;;;19.90;;
27939;SDS011;15275;51.716;14.324;2023-03-20T12:16:54;39.08;;;19.80;;
27939;SDS011;15275;51.716;14.324;2023-03-20T12:19:48;38.05;;;20.58;;
27939;SDS011;15275;51.716;14.324;2023-03-20T12:22:20;45.05;;;21.30;;
27939;SDS011;15275;51.716;14.324;2023-03-20T12:27:37;39.03;;;19.20;;
27939;SDS011;15275;51.716;14.324;2023-03-20T12:30:15;40.60;;;20.23;;
27939;SDS011;15275;51.716;14.324;2023-03-20T12:33:03;37.13;;;19.70;;
27939;SDS011;15275;51.716;14.324;2023-03-20T12:35:45;36.67;;;19.45;;
27939;SDS011;15275;51.716;14.324;2023-03-20T12:38:33;36.65;;;18.83;;
27939;SDS011;15275;51.716;14.324;2023-03-20T12:41:03;34.38;;;18.90;;
27939;SDS011;15275;51.716;14.324;2023-03-20T12:44:22;32.70;;;17.98;;
27939;SDS011;15275;51.716;14.324;2023-03-20T12:46:55;31.67;;;17.05;;
27939;SDS011;15275;51.716;14.324;2023-03-20T12:58:21;26.52;;;14.32;;
27939;SDS011;15275;51.716;14.324;2023-03-20T13:06:32;29.77;;;15.98;;
27939;SDS011;15275;51.716;14.324;2023-03-20T13:31:48;22.25;;;13.02;;
27939;SDS011;15275;51.716;14.324;2023-03-20T13:37:58;23.13;;;12.48;;
27939;SDS011;15275;51.716;14.324;2023-03-20T13:40:38;22.13;;;12.65;;
27939;SDS011;15275;51.716;14.324;2023-03-20T13:46:07;19.98;;;12.00;;
27939;SDS011;15275;51.716;14.324;2023-03-20T13:48:46;24.95;;;14.10;;
27939;SDS011;15275;51.716;14.324;2023-03-20T13:51:31;22.60;;;13.45;;
27939;SDS011;15275;51.716;14.324;2023-03-20T14:01:07;19.52;;;11.93;;
27939;SDS011;15275;51.716;14.324;2023-03-20T14:03:50;22.10;;;12.65;;
27939;SDS011;15275;51.716;14.324;2023-03-20T14:08:56;20.50;;;13.02;;
27939;SDS011;15275;51.716;14.324;2023-03-20T14:13:57;22.95;;;13.30;;
27939;SDS011;15275;51.716;14.324;2023-03-20T14:16:31;20.95;;;12.02;;
27939;SDS011;15275;51.716;14.324;2023-03-20T14:21:45;23.17;;;12.60;;
27939;SDS011;15275;51.716;14.324;2023-03-20T14:24:13;24.55;;;14.00;;
27939;SDS011;15275;51.716;14.324;2023-03-20T14:26:41;24.38;;;14.27;;
27939;SDS011;15275;51.716;14.324;2023-03-20T14:34:46;20.67;;;12.93;;
27939;SDS011;15275;51.716;14.324;2023-03-20T14:48:58;22.90;;;12.50;;
27939;SDS011;15275;51.716;14.324;2023-03-20T14:52:02;25.80;;;14.10;;
27939;SDS011;15275;51.716;14.324;2023-03-20T14:54:53;24.92;;;13.32;;
27939;SDS011;15275;51.716;14.324;2023-03-20T14:57:29;24.80;;;13.65;;
27939;SDS011;15275;51.716;14.324;2023-03-20T14:59:57;23.05;;;13.13;;
27939;SDS011;15275;51.716;14.324;2023-03-20T15:02:29;24.70;;;13.80;;
27939;SDS011;15275;51.716;14.324;2023-03-20T15:04:59;24.10;;;13.23;;
27939;SDS011;15275;51.716;14.324;2023-03-20T15:07:33;23.67;;;13.13;;
27939;SDS011;15275;51.716;14.324;2023-03-20T15:10:03;24.67;;;13.40;;
27939;SDS011;15275;51.716;14.324;2023-03-20T15:12:32;24.83;;;13.70;;
27939;SDS011;15275;51.716;14.324;2023-03-20T15:15:01;25.10;;;13.65;;
27939;SDS011;15275;51.716;14.324;2023-03-20T15:17:42;23.60;;;13.68;;
27939;SDS011;15275;51.716;14.324;2023-03-20T15:23:01;23.90;;;13.90;;
27939;SDS011;15275;51.716;14.324;2023-03-20T15:25:34;23.83;;;13.07;;
27939;SDS011;15275;51.716;14.324;2023-03-20T15:28:12;25.48;;;14.40;;
27939;SDS011;15275;51.716;14.324;2023-03-20T15:30:41;26.05;;;13.48;;
27939;SDS011;15275;51.716;14.324;2023-03-20T15:33:15;22.15;;;13.32;;
27939;SDS011;15275;51.716;14.324;2023-03-20T15:35:45;24.40;;;13.00;;
27939;SDS011;15275;51.716;14.324;2023-03-20T15:38:11;22.55;;;12.68;;
27939;SDS011;15275;51.716;14.324;2023-03-20T15:40:40;25.10;;;13.52;;
27939;SDS011;15275;51.716;14.324;2023-03-20T15:43:14;22.55;;;13.57;;
27939;SDS011;15275;51.716;14.324;2023-03-20T15:45:45;28.63;;;14.80;;
27939;SDS011;15275;51.716;14.324;2023-03-20T15:48:15;23.77;;;14.00;;
27939;SDS011;15275;51.716;14.324;2023-03-20T15:50:45;25.77;;;15.32;;
27939;SDS011;15275;51.716;14.324;2023-03-20T15:53:18;24.48;;;13.50;;
27939;SDS011;15275;51.716;14.324;2023-03-20T15:56:19;24.33;;;14.52;;
27939;SDS011;15275;51.716;14.324;2023-03-20T15:58:49;27.48;;;14.63;;
27939;SDS011;15275;51.716;14.324;2023-03-20T16:01:20;27.42;;;14.48;;
27939;SDS011;15275;51.716;14.324;2023-03-20T16:03:49;28.10;;;15.13;;
27939;SDS011;15275;51.716;14.324;2023-03-20T16:06:19;29.65;;;14.48;;
27939;SDS011;15275;51.716;14.324;2023-03-20T16:09:00;26.98;;;14.43;;
27939;SDS011;15275;51.716;14.324;2023-03-20T16:11:35;23.60;;;14.15;;
27939;SDS011;15275;51.716;14.324;2023-03-20T16:14:04;21.67;;;13.20;;
27939;SDS011;15275;51.716;14.324;2023-03-20T16:16:33;24.85;;;13.88;;
27939;SDS011;15275;51.716;14.324;2023-03-20T16:19:02;29.58;;;14.48;;
27939;SDS011;15275;51.716;14.324;2023-03-20T16:21:34;27.38;;;13.93;;
27939;SDS011;15275;51.716;14.324;2023-03-20T16:24:04;22.10;;;12.30;;
27939;SDS011;15275;51.716;14.324;2023-03-20T16:26:35;23.83;;;14.00;;
27939;SDS011;15275;51.716;14.324;2023-03-20T16:29:05;25.08;;;13.50;;
27939;SDS011;15275;51.716;14.324;2023-03-20T16:31:32;24.60;;;14.18;;
27939;SDS011;15275;51.716;14.324;2023-03-20T16:34:07;22.25;;;13.27;;
27939;SDS011;15275;51.716;14.324;2023-03-20T16:36:47;22.65;;;12.63;;
27939;SDS011;15275;51.716;14.324;2023-03-20T16:39:28;23.90;;;12.80;;
27939;SDS011;15275;51.716;14.324;2023-03-20T16:41:56;27.27;;;12.65;;
27939;SDS011;15275;51.716;14.324;2023-03-20T16:44:51;23.30;;;13.32;;
27939;SDS011;15275;51.716;14.324;2023-03-20T16:52:30;25.67;;;13.90;;
27939;SDS011;15275;51.716;14.324;2023-03-20T16:55:02;24.23;;;13.18;;
27939;SDS011;15275;51.716;14.324;2023-03-20T16:57:32;24.30;;;13.63;;
27939;SDS011;15275;51.716;14.324;2023-03-20T17:00:04;27.73;;;13.60;;
27939;SDS011;15275;51.716;14.324;2023-03-20T17:02:51;27.25;;;12.70;;
27939;SDS011;15275;51.716;14.324;2023-03-20T17:05:53;25.23;;;12.93;;
27939;SDS011;15275;51.716;14.324;2023-03-20T17:08:23;23.73;;;13.63;;
27939;SDS011;15275;51.716;14.324;2023-03-20T17:10:59;29.05;;;14.68;;
27939;SDS011;15275;51.716;14.324;2023-03-20T17:13:33;26.33;;;13.65;;
27939;SDS011;15275;51.716;14.324;2023-03-20T17:15:59;25.15;;;13.57;;
27939;SDS011;15275;51.716;14.324;2023-03-20T17:18:26;25.35;;;13.90;;
27939;SDS011;15275;51.716;14.324;2023-03-20T17:20:53;26.25;;;13.45;;
27939;SDS011;15275;51.716;14.324;2023-03-20T17:23:19;25.35;;;13.15;;
27939;SDS011;15275;51.716;14.324;2023-03-20T17:25:47;23.83;;;13.73;;
27939;SDS011;15275;51.716;14.324;2023-03-20T17:28:16;24.00;;;12.75;;
27939;SDS011;15275;51.716;14.324;2023-03-20T17:30:47;27.45;;;14.25;;
27939;SDS011;15275;51.716;14.324;2023-03-20T17:33:15;21.83;;;12.43;;
27939;SDS011;15275;51.716;14.324;2023-03-20T17:35:44;29.35;;;13.73;;
27939;SDS011;15275;51.716;14.324;2023-03-20T17:38:15;25.10;;;14.10;;
27939;SDS011;15275;51.716;14.324;2023-03-20T17:40:45;26.60;;;12.90;;
27939;SDS011;15275;51.716;14.324;2023-03-20T17:43:12;23.15;;;13.65;;
27939;SDS011;15275;51.716;14.324;2023-03-20T17:45:40;27.98;;;14.50;;
27939;SDS011;15275;51.716;14.324;2023-03-20T17:48:14;25.58;;;13.02;;
27939;SDS011;15275;51.716;14.324;2023-03-20T17:50:44;24.77;;;13.07;;
27939;SDS011;15275;51.716;14.324;2023-03-20T17:53:24;27.63;;;15.38;;
27939;SDS011;15275;51.716;14.324;2023-03-20T17:55:53;26.17;;;12.15;;
27939;SDS011;15275;51.716;14.324;2023-03-20T17:58:22;25.45;;;12.98;;
27939;SDS011;15275;51.716;14.324;2023-03-20T18:00:49;25.60;;;14.10;;
27939;SDS011;15275;51.716;14.324;2023-03-20T18:03:17;26.17;;;13.88;;
27939;SDS011;15275;51.716;14.324;2023-03-20T18:05:47;26.05;;;12.98;;
27939;SDS011;15275;51.716;14.324;2023-03-20T18:08:15;29.73;;;13.40;;
27939;SDS011;15275;51.716;14.324;2023-03-20T18:10:50;25.02;;;13.55;;